Tustin, Wisconsin
Current Conditions -  °F | °C
As of 7:35 PM on Tuesday 25 Nov 2014 (Local Time) from KPCZ Reporting Station
Clear Clear  
Wind Chill: 15°   Ceiling: Unl
Heat Index: 15°   Visibility: 7mi
Dew Point: 12°   Wind: 0mph
Humidity: 89%   Direction: NA
Pressure: 30.11"   Gusts: NA
Location:  44.2033°N, 88.9001°W
Report Text: KPCZ 260135Z AUTO 00000KT 7SM CLR M09/M11 A3011 RMK AO2 T10951110
Loading
Personal Weather Stations






























Interactive Weather Map New forecast layout! Learn more

10-Day Weather Forecast

Advertisements
Track Severe Weather on mobile